Time,TemperatureF,DewpointF,PressureIn,WindDirection,WindDirectionDegrees,WindSpeedMPH,WindSpeedGustMPH,Humidity,HourlyPrecipIn,Conditions,Clouds,dailyrainin,SoftwareType,DateUTC
2013-01-23 00:00:00,5.2,-15.9,29.38,West,270,1.0,5.0,36,0.00,,,0.00,meteohub,2013-01-23 05:00:00,
2013-01-23 00:01:00,5.2,-15.9,29.38,West,270,0.0,5.0,36,0.00,,,0.00,meteohub,2013-01-23 05:01:00,
2013-01-23 00:02:00,5.2,-15.9,29.38,West,270,0.0,5.0,36,0.00,,,0.00,meteohub,2013-01-23 05:02:00,
2013-01-23 00:08:00,5.2,-15.9,29.38,West,270,3.0,5.0,36,0.00,,,0.00,meteohub,2013-01-23 05:08:00,
2013-01-23 00:12:00,5.2,-15.9,29.38,West,270,1.0,4.0,36,0.00,,,0.00,meteohub,2013-01-23 05:12:00,
2013-01-23 00:17:00,5.2,-15.9,29.38,West,270,1.0,4.0,36,0.00,,,0.00,meteohub,2013-01-23 05:17:00,
2013-01-23 00:22:00,5.4,-15.7,29.38,West,270,4.0,5.0,36,0.00,,,0.00,meteohub,2013-01-23 05:22:00,
2013-01-23 00:27:00,5.4,-15.7,29.38,West,270,4.0,5.0,36,0.00,,,0.00,meteohub,2013-01-23 05:27:00,
2013-01-23 00:32:00,5.4,-15.7,29.41,WSW,248,1.0,5.0,36,0.00,,,0.00,meteohub,2013-01-23 05:32:00,
2013-01-23 00:37:00,5.2,-15.9,29.41,West,270,0.0,4.0,36,0.00,,,0.00,meteohub,2013-01-23 05:37:00,
2013-01-23 00:42:00,5.0,-16.1,29.38,WSW,248,1.0,4.0,36,0.00,,,0.00,meteohub,2013-01-23 05:42:00,
2013-01-23 00:47:00,5.0,-16.1,29.38,West,270,3.0,3.0,36,0.00,,,0.00,meteohub,2013-01-23 05:47:00,
2013-01-23 00:53:00,5.0,-16.1,29.38,West,270,4.0,4.0,36,0.00,,,0.00,meteohub,2013-01-23 05:53:00,
2013-01-23 00:58:00,5.0,-16.1,29.38,WSW,248,2.0,6.0,36,0.00,,,0.00,meteohub,2013-01-23 05:58:00,
2013-01-23 01:03:00,5.0,-16.1,29.38,West,270,3.0,6.0,36,0.00,,,0.00,meteohub,2013-01-23 06:03:00,
2013-01-23 01:08:00,5.0,-16.1,29.38,West,270,3.0,6.0,36,0.00,,,0.00,meteohub,2013-01-23 06:08:00,
2013-01-23 01:13:00,5.0,-16.1,29.38,West,270,3.0,4.0,36,0.00,,,0.00,meteohub,2013-01-23 06:13:00,
2013-01-23 01:18:00,5.0,-16.1,29.38,WSW,248,4.0,4.0,36,0.00,,,0.00,meteohub,2013-01-23 06:18:00,
2013-01-23 01:24:00,5.0,-16.1,29.38,West,270,4.0,5.0,36,0.00,,,0.00,meteohub,2013-01-23 06:24:00,
2013-01-23 01:29:00,5.2,-15.9,29.38,WSW,248,1.0,6.0,36,0.00,,,0.00,meteohub,2013-01-23 06:29:00,
2013-01-23 01:34:00,5.2,-15.9,29.38,West,270,2.0,6.0,36,0.00,,,0.00,meteohub,2013-01-23 06:34:00,
2013-01-23 01:39:00,5.4,-15.7,29.38,West,270,2.0,6.0,36,0.00,,,0.00,meteohub,2013-01-23 06:39:00,
2013-01-23 01:44:00,5.2,-15.9,29.38,SW,225,3.0,4.0,36,0.00,,,0.00,meteohub,2013-01-23 06:44:00,
2013-01-23 01:49:00,5.2,-15.9,29.38,West,270,1.0,4.0,36,0.00,,,0.00,meteohub,2013-01-23 06:49:00,
2013-01-23 01:54:00,5.0,-16.1,29.38,West,270,3.0,6.0,36,0.00,,,0.00,meteohub,2013-01-23 06:54:00,
2013-01-23 02:00:00,5.0,-16.1,29.38,WSW,248,3.0,6.0,36,0.00,,,0.00,meteohub,2013-01-23 07:00:00,
2013-01-23 02:05:00,5.0,-16.1,29.38,WSW,248,1.0,4.0,36,0.00,,,0.00,meteohub,2013-01-23 07:05:00,
2013-01-23 02:10:00,4.8,-16.2,29.38,West,270,3.0,4.0,36,0.00,,,0.00,meteohub,2013-01-23 07:10:00,
2013-01-23 02:16:00,5.0,-16.1,29.38,West,270,2.0,6.0,36,0.00,,,0.00,meteohub,2013-01-23 07:16:00,
2013-01-23 02:21:00,5.0,-16.1,29.38,WNW,292,1.0,6.0,36,0.00,,,0.00,meteohub,2013-01-23 07:21:00,
2013-01-23 02:26:00,5.0,-16.1,29.38,WSW,248,0.0,6.0,36,0.00,,,0.00,meteohub,2013-01-23 07:26:00,
2013-01-23 02:31:00,5.0,-16.1,29.38,West,270,2.0,5.0,36,0.00,,,0.00,meteohub,2013-01-23 07:31:00,
2013-01-23 02:36:00,4.8,-16.2,29.38,West,270,3.0,5.0,36,0.00,,,0.00,meteohub,2013-01-23 07:36:00,
2013-01-23 02:42:00,4.8,-16.2,29.38,WSW,248,2.0,4.0,36,0.00,,,0.00,meteohub,2013-01-23 07:42:00,
2013-01-23 02:47:00,4.8,-16.2,29.38,WSW,248,3.0,4.0,36,0.00,,,0.00,meteohub,2013-01-23 07:47:00,
2013-01-23 02:52:00,4.8,-16.2,29.38,West,270,0.0,4.0,36,0.00,,,0.00,meteohub,2013-01-23 07:52:00,
2013-01-23 02:57:00,4.6,-16.4,29.38,West,270,3.0,4.0,36,0.00,,,0.00,meteohub,2013-01-23 07:57:00,
2013-01-23 03:02:00,4.5,-16.6,29.38,West,270,0.0,4.0,36,0.00,,,0.00,meteohub,2013-01-23 08:02:00,
2013-01-23 03:07:00,4.5,-16.6,29.38,WNW,292,3.0,3.0,36,0.00,,,0.00,meteohub,2013-01-23 08:07:00,
2013-01-23 03:13:00,4.5,-16.6,29.38,West,270,2.0,5.0,36,0.00,,,0.00,meteohub,2013-01-23 08:13:00,
2013-01-23 03:18:00,4.5,-16.6,29.38,West,270,1.0,5.0,36,0.00,,,0.00,meteohub,2013-01-23 08:18:00,
2013-01-23 03:23:00,4.3,-16.8,29.38,West,270,1.0,5.0,36,0.00,,,0.00,meteohub,2013-01-23 08:23:00,
2013-01-23 03:28:00,4.1,-17.0,29.38,SW,225,3.0,5.0,36,0.00,,,0.00,meteohub,2013-01-23 08:28:00,
2013-01-23 03:33:00,4.1,-17.0,29.38,SW,225,4.0,4.0,36,0.00,,,0.00,meteohub,2013-01-23 08:33:00,
2013-01-23 03:38:00,4.1,-17.0,29.38,West,270,3.0,4.0,36,0.00,,,0.00,meteohub,2013-01-23 08:38:00,
2013-01-23 03:44:00,4.1,-17.0,29.38,WSW,248,1.0,4.0,36,0.00,,,0.00,meteohub,2013-01-23 08:44:00,
2013-01-23 03:49:00,3.9,-17.1,29.38,West,270,2.0,5.0,36,0.00,,,0.00,meteohub,2013-01-23 08:49:00,
2013-01-23 03:54:00,3.9,-17.1,29.38,West,270,3.0,5.0,36,0.00,,,0.00,meteohub,2013-01-23 08:54:00,
2013-01-23 03:59:00,3.9,-17.1,29.38,WSW,248,1.0,5.0,36,0.00,,,0.00,meteohub,2013-01-23 08:59:00,
2013-01-23 04:05:00,3.9,-17.1,29.38,WSW,248,2.0,4.0,36,0.00,,,0.00,meteohub,2013-01-23 09:05:00,
2013-01-23 04:10:00,3.7,-17.1,29.38,West,270,4.0,4.0,36,0.00,,,0.00,meteohub,2013-01-23 09:10:00,
2013-01-23 04:15:00,3.7,-17.1,29.38,West,270,6.0,6.0,36,0.00,,,0.00,meteohub,2013-01-23 09:15:00,
2013-01-23 04:20:00,3.9,-17.1,29.38,West,270,3.0,6.0,36,0.00,,,0.00,meteohub,2013-01-23 09:20:00,
2013-01-23 04:25:00,3.7,-17.1,29.38,WSW,248,2.0,6.0,36,0.00,,,0.00,meteohub,2013-01-23 09:25:00,
2013-01-23 04:30:00,3.7,-17.1,29.38,West,270,2.0,5.0,36,0.00,,,0.00,meteohub,2013-01-23 09:30:00,
2013-01-23 04:36:00,3.7,-17.1,29.38,West,270,3.0,5.0,36,0.00,,,0.00,meteohub,2013-01-23 09:36:00,
2013-01-23 04:41:00,3.7,-17.1,29.38,West,270,2.0,5.0,36,0.00,,,0.00,meteohub,2013-01-23 09:41:00,
2013-01-23 04:46:00,3.7,-17.1,29.38,West,270,3.0,4.0,36,0.00,,,0.00,meteohub,2013-01-23 09:46:00,
2013-01-23 04:51:00,3.7,-17.1,29.38,SW,225,5.0,5.0,36,0.00,,,0.00,meteohub,2013-01-23 09:51:00,
2013-01-23 04:56:00,3.6,-17.3,29.38,West,270,4.0,5.0,36,0.00,,,0.00,meteohub,2013-01-23 09:56:00,
2013-01-23 05:02:00,3.6,-17.3,29.38,West,270,2.0,5.0,36,0.00,,,0.00,meteohub,2013-01-23 10:02:00,
2013-01-23 05:07:00,3.4,-17.5,29.38,West,270,3.0,5.0,36,0.00,,,0.00,meteohub,2013-01-23 10:07:00,
2013-01-23 05:12:00,3.2,-17.7,29.38,SW,225,2.0,4.0,36,0.00,,,0.00,meteohub,2013-01-23 10:12:00,
2013-01-23 05:17:00,3.2,-17.7,29.38,West,270,2.0,3.0,36,0.00,,,0.00,meteohub,2013-01-23 10:17:00,
2013-01-23 05:22:00,3.2,-17.7,29.38,West,270,2.0,4.0,36,0.00,,,0.00,meteohub,2013-01-23 10:22:00,
2013-01-23 05:27:00,3.2,-17.7,29.38,WSW,248,2.0,4.0,36,0.00,,,0.00,meteohub,2013-01-23 10:27:00,
2013-01-23 05:32:00,3.2,-17.7,29.38,West,270,1.0,4.0,36,0.00,,,0.00,meteohub,2013-01-23 10:32:00,
2013-01-23 05:37:00,3.0,-17.9,29.38,SW,225,0.0,4.0,36,0.00,,,0.00,meteohub,2013-01-23 10:37:00,
2013-01-23 05:42:00,2.8,-18.0,29.35,WSW,248,1.0,3.0,36,0.00,,,0.00,meteohub,2013-01-23 10:42:00,
2013-01-23 05:48:00,2.8,-18.0,29.35,WSW,248,1.0,3.0,36,0.00,,,0.00,meteohub,2013-01-23 10:48:00,
2013-01-23 05:53:00,2.8,-18.0,29.35,WSW,248,2.0,3.0,36,0.00,,,0.00,meteohub,2013-01-23 10:53:00,
2013-01-23 05:58:00,2.8,-18.0,29.35,West,270,2.0,3.0,36,0.00,,,0.00,meteohub,2013-01-23 10:58:00,
2013-01-23 06:04:00,2.8,-18.0,29.35,West,270,2.0,3.0,36,0.00,,,0.00,meteohub,2013-01-23 11:04:00,
2013-01-23 06:09:00,2.8,-18.0,29.35,SW,225,0.0,4.0,36,0.00,,,0.00,meteohub,2013-01-23 11:09:00,
2013-01-23 06:14:00,2.7,-18.2,29.35,SW,225,2.0,4.0,36,0.00,,,0.00,meteohub,2013-01-23 11:14:00,
2013-01-23 06:19:00,2.7,-18.2,29.35,SW,225,1.0,4.0,36,0.00,,,0.00,meteohub,2013-01-23 11:19:00,
2013-01-23 06:24:00,2.7,-18.2,29.35,WSW,248,2.0,3.0,36,0.00,,,0.00,meteohub,2013-01-23 11:24:00,
2013-01-23 06:29:00,2.7,-18.2,29.38,SW,225,1.0,2.0,36,0.00,,,0.00,meteohub,2013-01-23 11:29:00,
2013-01-23 06:35:00,2.7,-18.2,29.38,SW,225,1.0,2.0,36,0.00,,,0.00,meteohub,2013-01-23 11:35:00,
2013-01-23 06:40:00,2.5,-18.4,29.38,SW,225,1.0,2.0,36,0.00,,,0.00,meteohub,2013-01-23 11:40:00,
2013-01-23 06:45:00,2.5,-18.4,29.38,SW,225,1.0,2.0,36,0.00,,,0.00,meteohub,2013-01-23 11:45:00,
2013-01-23 06:50:00,2.5,-18.4,29.35,WSW,248,1.0,2.0,36,0.00,,,0.00,meteohub,2013-01-23 11:50:00,
2013-01-23 06:55:00,2.5,-18.4,29.35,SW,225,0.0,2.0,36,0.00,,,0.00,meteohub,2013-01-23 11:55:00,
2013-01-23 07:00:00,2.5,-18.4,29.35,SW,225,2.0,2.0,36,0.00,,,0.00,meteohub,2013-01-23 12:00:00,
2013-01-23 07:05:00,2.5,-18.4,29.35,SW,225,1.0,2.0,36,0.00,,,0.00,meteohub,2013-01-23 12:05:00,
2013-01-23 07:11:00,2.3,-18.6,29.35,SW,225,2.0,3.0,36,0.00,,,0.00,meteohub,2013-01-23 12:11:00,
2013-01-23 07:16:00,2.5,-18.4,29.35,WSW,248,1.0,3.0,36,0.00,,,0.00,meteohub,2013-01-23 12:16:00,
2013-01-23 07:22:00,2.3,-18.6,29.35,SW,225,1.0,3.0,36,0.00,,,0.00,meteohub,2013-01-23 12:22:00,
2013-01-23 07:27:00,2.3,-18.6,29.35,SW,225,0.0,2.0,36,0.00,,,0.00,meteohub,2013-01-23 12:27:00,
2013-01-23 07:32:00,2.1,-18.8,29.35,SW,225,0.0,2.0,36,0.00,,,0.00,meteohub,2013-01-23 12:32:00,
2013-01-23 07:37:00,1.9,-18.8,29.35,SW,225,0.0,1.0,36,0.00,,,0.00,meteohub,2013-01-23 12:37:00,
2013-01-23 07:42:00,1.9,-18.8,29.35,SW,225,1.0,2.0,36,0.00,,,0.00,meteohub,2013-01-23 12:42:00,
2013-01-23 07:47:00,2.1,-18.8,29.35,SW,225,2.0,2.0,36,0.00,,,0.00,meteohub,2013-01-23 12:47:00,
2013-01-23 07:53:00,2.3,-18.6,29.35,SW,225,1.0,3.0,36,0.00,,,0.00,meteohub,2013-01-23 12:53:00,
2013-01-23 07:58:00,2.5,-18.4,29.35,WSW,248,2.0,3.0,36,0.00,,,0.00,meteohub,2013-01-23 12:58:00,
2013-01-23 08:03:00,2.5,-18.4,29.35,SW,225,2.0,3.0,36,0.00,,,0.00,meteohub,2013-01-23 13:03:00,
2013-01-23 08:08:00,2.7,-18.2,29.35,WSW,248,2.0,3.0,36,0.00,,,0.00,meteohub,2013-01-23 13:08:00,
2013-01-23 08:13:00,2.7,-18.2,29.32,WSW,248,2.0,3.0,36,0.00,,,0.00,meteohub,2013-01-23 13:13:00,
2013-01-23 08:18:00,2.8,-18.0,29.32,West,270,3.0,3.0,36,0.00,,,0.00,meteohub,2013-01-23 13:18:00,
2013-01-23 08:23:00,2.8,-18.0,29.32,SSW,202,2.0,3.0,36,0.00,,,0.00,meteohub,2013-01-23 13:23:00,
2013-01-23 08:28:00,2.8,-18.0,29.35,WSW,248,3.0,3.0,36,0.00,,,0.00,meteohub,2013-01-23 13:28:00,
2013-01-23 08:34:00,3.0,-17.9,29.35,SSW,202,3.0,3.0,36,0.00,,,0.00,meteohub,2013-01-23 13:34:00,
2013-01-23 08:39:00,3.0,-17.9,29.35,SW,225,2.0,3.0,36,0.00,,,0.00,meteohub,2013-01-23 13:39:00,
2013-01-23 08:44:00,3.6,-17.3,29.35,SW,225,3.0,4.0,36,0.00,,,0.00,meteohub,2013-01-23 13:44:00,
2013-01-23 08:49:00,4.1,-17.0,29.35,WSW,248,3.0,4.0,36,0.00,,,0.00,meteohub,2013-01-23 13:49:00,
2013-01-23 08:54:00,4.3,-16.8,29.35,SSW,202,3.0,6.0,36,0.00,,,0.00,meteohub,2013-01-23 13:54:00,
2013-01-23 08:59:00,4.6,-16.4,29.35,SW,225,3.0,6.0,36,0.00,,,0.00,meteohub,2013-01-23 13:59:00,
2013-01-23 09:04:00,5.0,-16.1,29.35,SW,225,3.0,6.0,36,0.00,,,0.00,meteohub,2013-01-23 14:04:00,
2013-01-23 09:09:00,5.7,-15.5,29.35,West,270,4.0,4.0,36,0.00,,,0.00,meteohub,2013-01-23 14:09:00,
2013-01-23 09:14:00,6.3,-15.0,29.32,SW,225,3.0,4.0,36,0.00,,,0.00,meteohub,2013-01-23 14:14:00,
2013-01-23 09:20:00,6.3,-15.0,29.32,WSW,248,3.0,4.0,36,0.00,,,0.00,meteohub,2013-01-23 14:20:00,
2013-01-23 09:25:00,6.4,-14.8,29.32,SW,225,3.0,4.0,36,0.00,,,0.00,meteohub,2013-01-23 14:25:00,
2013-01-23 09:30:00,7.0,-14.3,29.35,SW,225,3.0,5.0,36,0.00,,,0.00,meteohub,2013-01-23 14:30:00,
2013-01-23 09:35:00,7.2,-14.1,29.35,West,270,5.0,5.0,36,0.00,,,0.00,meteohub,2013-01-23 14:35:00,
2013-01-23 09:40:00,7.5,-13.9,29.35,SSW,202,3.0,6.0,36,0.00,,,0.00,meteohub,2013-01-23 14:40:00,
2013-01-23 09:45:00,7.7,-13.7,29.35,WSW,248,2.0,6.0,36,0.00,,,0.00,meteohub,2013-01-23 14:45:00,
2013-01-23 09:50:00,8.2,-13.2,29.35,SSW,202,2.0,6.0,36,0.00,,,0.00,meteohub,2013-01-23 14:50:00,
2013-01-23 09:56:00,8.4,-13.0,29.35,SW,225,2.0,5.0,36,0.00,,,0.00,meteohub,2013-01-23 14:56:00,
2013-01-23 10:01:00,8.6,-12.8,29.35,SSW,202,4.0,6.0,36,0.00,,,0.00,meteohub,2013-01-23 15:01:00,
2013-01-23 10:06:00,8.4,-13.0,29.35,SSW,202,3.0,6.0,36,0.00,,,0.00,meteohub,2013-01-23 15:06:00,
2013-01-23 10:11:00,8.6,-12.8,29.35,SW,225,3.0,6.0,36,0.00,,,0.00,meteohub,2013-01-23 15:11:00,
2013-01-23 10:16:00,8.8,-12.6,29.35,WSW,248,3.0,6.0,36,0.00,,,0.00,meteohub,2013-01-23 15:16:00,
2013-01-23 10:21:00,9.3,-12.3,29.35,SW,225,3.0,6.0,36,0.00,,,0.00,meteohub,2013-01-23 15:21:00,
2013-01-23 10:26:00,9.7,-11.9,29.35,SE,135,1.0,6.0,36,0.00,,,0.00,meteohub,2013-01-23 15:26:00,
2013-01-23 10:31:00,9.9,-11.7,29.35,WNW,292,3.0,6.0,36,0.00,,,0.00,meteohub,2013-01-23 15:31:00,
2013-01-23 10:36:00,10.2,-11.4,29.35,SSW,202,4.0,6.0,36,0.00,,,0.00,meteohub,2013-01-23 15:36:00,
2013-01-23 10:41:00,10.4,-11.2,29.35,SW,225,4.0,6.0,36,0.00,,,0.00,meteohub,2013-01-23 15:41:00,
2013-01-23 10:46:00,10.8,-10.8,29.35,SW,225,6.0,6.0,36,0.00,,,0.00,meteohub,2013-01-23 15:46:00,
2013-01-23 10:52:00,11.1,-10.7,29.35,West,270,2.0,6.0,36,0.00,,,0.00,meteohub,2013-01-23 15:52:00,
2013-01-23 10:57:00,11.8,-9.9,29.35,WSW,248,1.0,6.0,36,0.00,,,0.00,meteohub,2013-01-23 15:57:00,
2013-01-23 11:02:00,12.6,-9.2,29.35,ENE,68,1.0,6.0,36,0.00,,,0.00,meteohub,2013-01-23 16:02:00,
2013-01-23 11:07:00,12.9,-9.0,29.35,WNW,292,4.0,4.0,36,0.00,,,0.00,meteohub,2013-01-23 16:07:00,
2013-01-23 11:12:00,12.7,-9.2,29.35,SW,225,2.0,6.0,36,0.00,,,0.00,meteohub,2013-01-23 16:12:00,
2013-01-23 11:17:00,12.7,-9.2,29.35,SSW,202,4.0,6.0,36,0.00,,,0.00,meteohub,2013-01-23 16:17:00,
2013-01-23 11:22:00,12.9,-9.0,29.35,SSW,202,3.0,4.0,36,0.00,,,0.00,meteohub,2013-01-23 16:22:00,
2013-01-23 11:27:00,13.5,-8.5,29.35,SE,135,2.0,6.0,36,0.00,,,0.00,meteohub,2013-01-23 16:27:00,
2013-01-23 11:32:00,14.5,-3.5,29.35,SW,225,5.0,6.0,44,0.00,,,0.00,meteohub,2013-01-23 16:32:00,
2013-01-23 11:37:00,14.2,-3.6,29.35,WSW,248,5.0,8.0,44,0.00,,,0.00,meteohub,2013-01-23 16:37:00,
2013-01-23 11:42:00,13.8,-4.0,29.35,SW,225,3.0,8.0,44,0.00,,,0.00,meteohub,2013-01-23 16:42:00,
2013-01-23 11:47:00,14.2,-3.6,29.35,SSE,158,4.0,8.0,44,0.00,,,0.00,meteohub,2013-01-23 16:47:00,
2013-01-23 11:52:00,13.8,-4.0,29.35,SW,225,3.0,7.0,44,0.00,,,0.00,meteohub,2013-01-23 16:52:00,
2013-01-23 11:57:00,14.2,-3.3,29.35,SW,225,4.0,7.0,45,0.00,,,0.00,meteohub,2013-01-23 16:57:00,
2013-01-23 12:02:00,14.9,-2.2,29.32,West,270,1.0,10.0,46,0.00,,,0.00,meteohub,2013-01-23 17:02:00,
2013-01-23 12:07:00,15.4,-1.7,29.32,SW,225,5.0,10.0,46,0.00,,,0.00,meteohub,2013-01-23 17:07:00,
2013-01-23 12:12:00,15.8,-1.3,29.32,NE,45,2.0,10.0,46,0.00,,,0.00,meteohub,2013-01-23 17:12:00,
2013-01-23 12:17:00,16.0,-1.7,29.29,SW,225,2.0,6.0,45,0.00,,,0.00,meteohub,2013-01-23 17:17:00,
2013-01-23 12:22:00,15.8,-1.3,29.29,SSE,158,3.0,6.0,46,0.00,,,0.00,meteohub,2013-01-23 17:22:00,
2013-01-23 12:27:00,15.3,-2.2,29.29,ESE,112,2.0,4.0,45,0.00,,,0.00,meteohub,2013-01-23 17:27:00,
2013-01-23 12:32:00,14.5,-2.9,29.29,WSW,248,4.0,4.0,45,0.00,,,0.00,meteohub,2013-01-23 17:32:00,
2013-01-23 12:37:00,14.9,-2.2,29.29,South,180,5.0,6.0,46,0.00,,,0.00,meteohub,2013-01-23 17:37:00,
2013-01-23 12:42:00,15.3,-1.8,29.29,SSW,202,0.0,6.0,46,0.00,,,0.00,meteohub,2013-01-23 17:42:00,
2013-01-23 12:47:00,16.0,-0.6,29.26,WSW,248,6.0,6.0,47,0.00,,,0.00,meteohub,2013-01-23 17:47:00,
2013-01-23 12:52:00,16.0,-1.1,29.26,South,180,1.0,6.0,46,0.00,,,0.00,meteohub,2013-01-23 17:52:00,
2013-01-23 12:57:00,16.2,-0.9,29.26,West,270,3.0,6.0,46,0.00,,,0.00,meteohub,2013-01-23 17:57:00,
2013-01-23 13:02:00,16.2,-0.9,29.29,South,180,5.0,7.0,46,0.00,,,0.00,meteohub,2013-01-23 18:02:00,
2013-01-23 13:07:00,16.0,-1.1,29.29,SW,225,3.0,9.0,46,0.00,,,0.00,meteohub,2013-01-23 18:07:00,
2013-01-23 13:12:00,16.0,-0.6,29.29,West,270,4.0,9.0,47,0.00,,,0.00,meteohub,2013-01-23 18:12:00,
2013-01-23 13:17:00,16.5,-0.2,29.29,SSW,202,3.0,9.0,47,0.00,,,0.00,meteohub,2013-01-23 18:17:00,
2013-01-23 13:22:00,17.6,0.9,29.29,SSW,202,5.0,7.0,47,0.00,,,0.00,meteohub,2013-01-23 18:22:00,
2013-01-23 13:27:00,18.1,1.4,29.29,SSW,202,4.0,7.0,47,0.00,,,0.00,meteohub,2013-01-23 18:27:00,
2013-01-23 13:32:00,17.4,0.7,29.26,West,270,3.0,6.0,47,0.00,,,0.00,meteohub,2013-01-23 18:32:00,
2013-01-23 13:37:00,17.6,1.8,29.26,SSW,202,3.0,6.0,49,0.00,,,0.00,meteohub,2013-01-23 18:37:00,
2013-01-23 13:42:00,18.1,1.8,29.26,SW,225,3.0,6.0,48,0.00,,,0.00,meteohub,2013-01-23 18:42:00,
2013-01-23 13:47:00,18.1,1.8,29.26,SSW,202,4.0,6.0,48,0.00,,,0.00,meteohub,2013-01-23 18:47:00,
2013-01-23 13:52:00,18.5,2.1,29.26,SSW,202,3.0,6.0,48,0.00,,,0.00,meteohub,2013-01-23 18:52:00,
2013-01-23 13:57:00,17.6,1.2,29.26,SSW,202,3.0,6.0,48,0.00,,,0.00,meteohub,2013-01-23 18:57:00,
2013-01-23 14:02:00,18.3,1.9,29.23,SW,225,4.0,6.0,48,0.00,,,0.00,meteohub,2013-01-23 19:02:00,
2013-01-23 14:07:00,18.3,1.9,29.23,West,270,6.0,6.0,48,0.00,,,0.00,meteohub,2013-01-23 19:07:00,
2013-01-23 14:12:00,18.0,2.1,29.23,SSW,202,2.0,8.0,49,0.00,,,0.00,meteohub,2013-01-23 19:12:00,
2013-01-23 14:17:00,18.1,2.3,29.23,SW,225,3.0,8.0,49,0.00,,,0.00,meteohub,2013-01-23 19:17:00,
2013-01-23 14:22:00,17.6,1.8,29.23,WSW,248,3.0,6.0,49,0.00,,,0.00,meteohub,2013-01-23 19:22:00,
2013-01-23 14:27:00,18.5,3.9,29.23,SSW,202,5.0,9.0,52,0.00,,,0.00,meteohub,2013-01-23 19:27:00,
2013-01-23 14:32:00,19.4,3.0,29.23,SW,225,6.0,9.0,48,0.00,,,0.00,meteohub,2013-01-23 19:32:00,
2013-01-23 14:37:00,19.6,2.1,29.23,SW,225,5.0,9.0,46,0.00,,,0.00,meteohub,2013-01-23 19:37:00,
2013-01-23 14:42:00,20.1,2.3,29.23,SW,225,3.0,6.0,45,0.00,,,0.00,meteohub,2013-01-23 19:42:00,
2013-01-23 14:47:00,19.8,2.3,29.21,WSW,248,6.0,8.0,46,0.00,,,0.00,meteohub,2013-01-23 19:47:00,
2013-01-23 14:52:00,19.6,1.8,29.21,West,270,6.0,8.0,45,0.00,,,0.00,meteohub,2013-01-23 19:52:00,
2013-01-23 14:57:00,19.6,2.1,29.21,WNW,292,3.0,8.0,46,0.00,,,0.00,meteohub,2013-01-23 19:57:00,
2013-01-23 15:02:00,19.2,2.3,29.26,WSW,248,5.0,8.0,47,0.00,,,0.00,meteohub,2013-01-23 20:02:00,
2013-01-23 15:07:00,18.3,1.0,29.26,WSW,248,6.0,8.0,46,0.00,,,0.00,meteohub,2013-01-23 20:07:00,
2013-01-23 15:12:00,19.0,3.0,29.26,SW,225,4.0,7.0,49,0.00,,,0.00,meteohub,2013-01-23 20:12:00,
2013-01-23 15:17:00,19.0,2.1,29.23,WNW,292,3.0,7.0,47,0.00,,,0.00,meteohub,2013-01-23 20:17:00,
2013-01-23 15:22:00,19.0,2.1,29.23,SSW,202,6.0,7.0,47,0.00,,,0.00,meteohub,2013-01-23 20:22:00,
2013-01-23 15:27:00,19.0,3.0,29.23,SSW,202,4.0,7.0,49,0.00,,,0.00,meteohub,2013-01-23 20:27:00,
2013-01-23 15:32:00,19.4,2.5,29.23,SSW,202,4.0,8.0,47,0.00,,,0.00,meteohub,2013-01-23 20:32:00,
2013-01-23 15:37:00,18.7,2.3,29.23,SW,225,4.0,9.0,48,0.00,,,0.00,meteohub,2013-01-23 20:37:00,
2013-01-23 15:42:00,18.7,2.3,29.23,SSW,202,4.0,9.0,48,0.00,,,0.00,meteohub,2013-01-23 20:42:00,
2013-01-23 16:00:00,17.8,3.9,29.23,West,270,2.0,2.0,54,0.00,,,0.00,meteohub,2013-01-23 21:00:00,
2013-01-23 16:06:00,18.0,4.1,29.23,SSW,202,4.0,4.0,54,0.00,,,0.00,meteohub,2013-01-23 21:06:00,
2013-01-23 16:11:00,18.0,4.1,29.23,SSW,202,4.0,4.0,54,0.00,,,0.00,meteohub,2013-01-23 21:11:00,
2013-01-23 16:20:00,17.2,3.0,29.23,South,180,2.0,4.0,53,0.00,,,0.00,meteohub,2013-01-23 21:20:00,
2013-01-23 16:25:00,17.1,2.8,29.23,SSW,202,4.0,4.0,53,0.00,,,0.00,meteohub,2013-01-23 21:25:00,
2013-01-23 16:30:00,17.1,2.8,29.23,SW,225,4.0,4.0,53,0.00,,,0.00,meteohub,2013-01-23 21:30:00,
2013-01-23 16:35:00,17.1,2.1,29.23,West,270,2.0,4.0,51,0.00,,,0.00,meteohub,2013-01-23 21:35:00,
2013-01-23 16:40:00,16.9,1.4,29.23,SW,225,5.0,6.0,50,0.00,,,0.00,meteohub,2013-01-23 21:40:00,
2013-01-23 16:45:00,16.9,1.9,29.21,SW,225,5.0,8.0,51,0.00,,,0.00,meteohub,2013-01-23 21:45:00,
2013-01-23 16:50:00,16.7,1.8,29.21,SW,225,6.0,8.0,51,0.00,,,0.00,meteohub,2013-01-23 21:50:00,
2013-01-23 16:55:00,16.5,1.9,29.21,SW,225,3.0,8.0,52,0.00,,,0.00,meteohub,2013-01-23 21:55:00,
2013-01-23 17:01:00,16.5,2.5,29.21,WSW,248,3.0,6.0,53,0.00,,,0.00,meteohub,2013-01-23 22:01:00,
2013-01-23 17:06:00,16.5,2.8,29.21,SSW,202,3.0,6.0,54,0.00,,,0.00,meteohub,2013-01-23 22:06:00,
2013-01-23 17:11:00,16.5,2.5,29.21,West,270,6.0,6.0,53,0.00,,,0.00,meteohub,2013-01-23 22:11:00,
2013-01-23 17:16:00,16.3,1.8,29.18,West,270,4.0,6.0,52,0.00,,,0.00,meteohub,2013-01-23 22:16:00,
2013-01-23 17:21:00,16.2,1.6,29.18,WNW,292,4.0,8.0,52,0.00,,,0.00,meteohub,2013-01-23 22:21:00,
2013-01-23 17:26:00,16.0,1.4,29.18,WSW,248,4.0,8.0,52,0.00,,,0.00,meteohub,2013-01-23 22:26:00,
2013-01-23 17:31:00,16.0,2.7,29.21,WSW,248,4.0,9.0,55,0.00,,,0.00,meteohub,2013-01-23 22:31:00,
2013-01-23 17:37:00,15.8,3.4,29.21,SE,135,4.0,9.0,57,0.00,,,0.00,meteohub,2013-01-23 22:37:00,
2013-01-23 17:42:00,15.8,3.7,29.21,South,180,2.0,6.0,58,0.00,,,0.00,meteohub,2013-01-23 22:42:00,
2013-01-23 17:47:00,15.8,3.7,29.21,WSW,248,2.0,5.0,58,0.00,,,0.00,meteohub,2013-01-23 22:47:00,
2013-01-23 17:52:00,15.6,3.6,29.21,WSW,248,3.0,5.0,58,0.00,,,0.00,meteohub,2013-01-23 22:52:00,
2013-01-23 17:57:00,15.4,3.7,29.21,SW,225,4.0,5.0,59,0.00,,,0.00,meteohub,2013-01-23 22:57:00,
2013-01-23 18:02:00,15.4,4.5,29.21,SSW,202,5.0,5.0,61,0.00,,,0.00,meteohub,2013-01-23 23:02:00,
2013-01-23 18:07:00,15.3,4.3,29.21,SSW,202,3.0,6.0,61,0.00,,,0.00,meteohub,2013-01-23 23:07:00,
2013-01-23 18:12:00,15.1,4.1,29.21,West,270,2.0,6.0,61,0.00,,,0.00,meteohub,2013-01-23 23:12:00,
2013-01-23 18:17:00,15.1,4.8,29.21,SSW,202,2.0,6.0,63,0.00,,,0.00,meteohub,2013-01-23 23:17:00,
2013-01-23 18:22:00,14.9,5.4,29.21,NW,315,1.0,4.0,65,0.00,,,0.00,meteohub,2013-01-23 23:22:00,
2013-01-23 18:27:00,14.7,5.2,29.21,SSW,202,3.0,6.0,65,0.00,,,0.00,meteohub,2013-01-23 23:27:00,
2013-01-23 18:32:00,14.5,5.4,29.18,SW,225,3.0,6.0,66,0.00,,,0.00,meteohub,2013-01-23 23:32:00,
2013-01-23 18:37:00,14.5,5.5,29.18,West,270,3.0,6.0,67,0.00,,,0.00,meteohub,2013-01-23 23:37:00,
2013-01-23 18:42:00,14.5,5.5,29.18,SW,225,3.0,6.0,67,0.00,,,0.00,meteohub,2013-01-23 23:42:00,
2013-01-23 18:47:00,14.5,5.4,29.21,SW,225,2.0,6.0,66,0.00,,,0.00,meteohub,2013-01-23 23:47:00,
2013-01-23 18:52:00,14.5,5.4,29.21,WSW,248,3.0,5.0,66,0.00,,,0.00,meteohub,2013-01-23 23:52:00,
2013-01-23 18:57:00,14.5,5.4,29.21,WNW,292,2.0,5.0,66,0.00,,,0.00,meteohub,2013-01-23 23:57:00,
2013-01-23 19:02:00,14.5,5.5,29.21,SW,225,4.0,4.0,67,0.00,,,0.00,meteohub,2013-01-24 00:02:00,
2013-01-23 19:07:00,14.5,5.5,29.21,SSW,202,3.0,4.0,67,0.00,,,0.00,meteohub,2013-01-24 00:07:00,
2013-01-23 19:12:00,14.5,5.4,29.21,SW,225,3.0,4.0,66,0.00,,,0.00,meteohub,2013-01-24 00:12:00,
2013-01-23 19:17:00,14.5,5.4,29.21,SW,225,3.0,4.0,66,0.00,,,0.00,meteohub,2013-01-24 00:17:00,
2013-01-23 19:22:00,14.5,5.5,29.21,WSW,248,4.0,4.0,67,0.00,,,0.00,meteohub,2013-01-24 00:22:00,
2013-01-23 19:27:00,14.4,5.4,29.21,WSW,248,2.0,4.0,67,0.00,,,0.00,meteohub,2013-01-24 00:27:00,
2013-01-23 19:32:00,14.4,5.2,29.21,SW,225,2.0,4.0,66,0.00,,,0.00,meteohub,2013-01-24 00:32:00,
2013-01-23 19:37:00,14.4,5.2,29.21,SW,225,2.0,4.0,66,0.00,,,0.00,meteohub,2013-01-24 00:37:00,
2013-01-23 19:42:00,14.4,5.4,29.21,SW,225,3.0,3.0,67,0.00,,,0.00,meteohub,2013-01-24 00:42:00,
2013-01-23 19:47:00,14.4,5.4,29.21,SW,225,2.0,3.0,67,0.00,,,0.00,meteohub,2013-01-24 00:47:00,
2013-01-23 19:52:00,14.4,5.4,29.21,SSW,202,5.0,5.0,67,0.00,,,0.00,meteohub,2013-01-24 00:52:00,
2013-01-23 19:57:00,14.4,5.2,29.21,SW,225,3.0,5.0,66,0.00,,,0.00,meteohub,2013-01-24 00:57:00,
2013-01-23 20:02:00,14.2,4.3,29.18,WNW,292,4.0,6.0,64,0.00,,,0.00,meteohub,2013-01-24 01:02:00,
2013-01-23 20:07:00,14.2,3.9,29.18,West,270,4.0,6.0,63,0.00,,,0.00,meteohub,2013-01-24 01:07:00,
2013-01-23 20:12:00,14.2,3.9,29.18,SSW,202,1.0,6.0,63,0.00,,,0.00,meteohub,2013-01-24 01:12:00,
2013-01-23 20:17:00,14.0,4.1,29.18,SW,225,3.0,6.0,64,0.00,,,0.00,meteohub,2013-01-24 01:17:00,
2013-01-23 20:22:00,13.8,3.9,29.18,SW,225,1.0,4.0,64,0.00,,,0.00,meteohub,2013-01-24 01:22:00,
2013-01-23 20:27:00,13.8,3.9,29.18,SSW,202,3.0,5.0,64,0.00,,,0.00,meteohub,2013-01-24 01:27:00,
2013-01-23 20:32:00,13.8,3.9,29.18,SW,225,4.0,5.0,64,0.00,,,0.00,meteohub,2013-01-24 01:32:00,
2013-01-23 20:37:00,13.6,3.7,29.18,SW,225,2.0,5.0,64,0.00,,,0.00,meteohub,2013-01-24 01:37:00,
2013-01-23 20:43:00,13.5,3.6,29.18,SW,225,2.0,5.0,64,0.00,,,0.00,meteohub,2013-01-24 01:43:00,
2013-01-23 20:48:00,13.5,3.6,29.18,West,270,3.0,5.0,64,0.00,,,0.00,meteohub,2013-01-24 01:48:00,
2013-01-23 20:53:00,13.5,3.6,29.18,SW,225,2.0,3.0,64,0.00,,,0.00,meteohub,2013-01-24 01:53:00,
2013-01-23 20:58:00,13.5,3.6,29.18,SW,225,2.0,3.0,64,0.00,,,0.00,meteohub,2013-01-24 01:58:00,
2013-01-23 21:03:00,13.6,3.7,29.21,SW,225,2.0,4.0,64,0.00,,,0.00,meteohub,2013-01-24 02:03:00,
2013-01-23 21:08:00,13.6,3.7,29.21,South,180,4.0,4.0,64,0.00,,,0.00,meteohub,2013-01-24 02:08:00,
2013-01-23 21:13:00,13.6,3.7,29.18,SW,225,2.0,4.0,64,0.00,,,0.00,meteohub,2013-01-24 02:13:00,
2013-01-23 21:18:00,13.6,3.7,29.18,NW,315,2.0,4.0,64,0.00,,,0.00,meteohub,2013-01-24 02:18:00,
2013-01-23 21:23:00,13.8,3.9,29.18,WSW,248,2.0,4.0,64,0.00,,,0.00,meteohub,2013-01-24 02:23:00,
2013-01-23 21:29:00,13.8,3.9,29.21,West,270,4.0,4.0,64,0.00,,,0.00,meteohub,2013-01-24 02:29:00,
2013-01-23 21:34:00,13.8,3.9,29.21,SW,225,2.0,4.0,64,0.00,,,0.00,meteohub,2013-01-24 02:34:00,
2013-01-23 21:39:00,13.8,3.9,29.21,West,270,2.0,4.0,64,0.00,,,0.00,meteohub,2013-01-24 02:39:00,
2013-01-23 21:44:00,13.8,3.9,29.21,SW,225,2.0,4.0,64,0.00,,,0.00,meteohub,2013-01-24 02:44:00,
2013-01-23 21:49:00,14.0,5.4,29.21,SW,225,2.0,4.0,68,0.00,,,0.00,meteohub,2013-01-24 02:49:00,
2013-01-23 21:54:00,14.0,5.4,29.21,SW,225,1.0,4.0,68,0.00,,,0.00,meteohub,2013-01-24 02:54:00,
2013-01-23 21:59:00,14.0,5.4,29.21,West,270,4.0,4.0,68,0.00,,,0.00,meteohub,2013-01-24 02:59:00,
2013-01-23 22:04:00,14.0,5.7,29.21,SW,225,2.0,4.0,69,0.00,,,0.00,meteohub,2013-01-24 03:04:00,
2013-01-23 22:09:00,14.0,5.4,29.21,SW,225,2.0,4.0,68,0.00,,,0.00,meteohub,2013-01-24 03:09:00,
2013-01-23 22:14:00,14.2,5.5,29.21,SW,225,0.0,4.0,68,0.00,,,0.00,meteohub,2013-01-24 03:14:00,
2013-01-23 22:19:00,14.0,5.4,29.21,West,270,3.0,3.0,68,0.00,,,0.00,meteohub,2013-01-24 03:19:00,
2013-01-23 22:25:00,14.0,5.7,29.21,West,270,3.0,3.0,69,0.00,,,0.00,meteohub,2013-01-24 03:25:00,
2013-01-23 22:30:00,14.0,5.7,29.21,SW,225,2.0,4.0,69,0.00,,,0.00,meteohub,2013-01-24 03:30:00,
2013-01-23 22:35:00,14.2,5.9,29.21,WSW,248,3.0,4.0,69,0.00,,,0.00,meteohub,2013-01-24 03:35:00,
2013-01-23 22:40:00,14.0,6.1,29.21,West,270,2.0,4.0,70,0.00,,,0.00,meteohub,2013-01-24 03:40:00,
2013-01-23 22:45:00,14.0,5.7,29.21,West,270,2.0,4.0,69,0.00,,,0.00,meteohub,2013-01-24 03:45:00,
2013-01-23 22:50:00,14.0,6.1,29.21,West,270,3.0,4.0,70,0.00,,,0.00,meteohub,2013-01-24 03:50:00,
2013-01-23 22:55:00,14.0,5.7,29.21,WSW,248,2.0,4.0,69,0.00,,,0.00,meteohub,2013-01-24 03:55:00,
2013-01-23 23:00:00,14.0,5.7,29.21,SSW,202,1.0,4.0,69,0.00,,,0.00,meteohub,2013-01-24 04:00:00,
2013-01-23 23:05:00,14.0,5.4,29.21,WSW,248,1.0,3.0,68,0.00,,,0.00,meteohub,2013-01-24 04:05:00,
2013-01-23 23:10:00,14.2,5.2,29.21,West,270,3.0,3.0,67,0.00,,,0.00,meteohub,2013-01-24 04:10:00,
2013-01-23 23:15:00,14.2,5.5,29.23,West,270,0.0,3.0,68,0.00,,,0.00,meteohub,2013-01-24 04:15:00,
2013-01-23 23:20:00,14.2,5.5,29.23,West,270,0.0,4.0,68,0.00,,,0.00,meteohub,2013-01-24 04:20:00,
2013-01-23 23:26:00,14.2,5.5,29.23,WSW,248,1.0,4.0,68,0.00,,,0.00,meteohub,2013-01-24 04:26:00,
2013-01-23 23:31:00,14.4,5.7,29.23,SW,225,0.0,4.0,68,0.00,,,0.00,meteohub,2013-01-24 04:31:00,
2013-01-23 23:36:00,14.4,5.4,29.23,West,270,0.0,2.0,67,0.00,,,0.00,meteohub,2013-01-24 04:36:00,
2013-01-23 23:41:00,14.2,5.2,29.23,NW,315,0.0,2.0,67,0.00,,,0.00,meteohub,2013-01-24 04:41:00,
2013-01-23 23:46:00,14.2,5.2,29.23,NW,315,2.0,3.0,67,0.00,,,0.00,meteohub,2013-01-24 04:46:00,
2013-01-23 23:51:00,14.0,5.0,29.23,WSW,248,0.0,5.0,67,0.00,,,0.00,meteohub,2013-01-24 04:51:00,
2013-01-23 23:56:00,14.0,5.0,29.23,SSW,202,0.0,5.0,67,0.00,,,0.00,meteohub,2013-01-24 04:56:00,